createdAt,value
2022-10-11T00:00:50.644Z,12.5
2022-10-11T00:02:50.016Z,12.5
2022-10-11T00:04:50.611Z,11.6
2022-10-11T00:06:50.078Z,11.6
2022-10-11T00:08:50.158Z,12.6
2022-10-11T00:10:50.360Z,12.9
2022-10-11T00:12:50.551Z,12.9
2022-10-11T00:14:50.550Z,12.3
2022-10-11T00:16:50.185Z,12.3
2022-10-11T00:18:50.343Z,12.9
2022-10-11T00:20:50.408Z,12.7
2022-10-11T00:22:50.523Z,12.5
2022-10-11T00:24:50.706Z,12.5
2022-10-11T00:26:50.125Z,12.4
2022-10-11T00:28:50.381Z,12.8
2022-10-11T00:30:50.174Z,12.2
2022-10-11T00:32:50.561Z,12.4
2022-10-11T00:34:50.395Z,12.4
2022-10-11T00:36:50.099Z,12.6
2022-10-11T00:38:50.357Z,12.5
2022-10-11T00:40:50.700Z,12.0
2022-10-11T00:42:49.911Z,12.4
2022-10-11T00:44:50.358Z,12.4
2022-10-11T00:46:55.815Z,11.7
2022-10-11T00:48:50.162Z,12.0
2022-10-11T00:50:50.319Z,11.8
2022-10-11T00:52:50.377Z,11.4
2022-10-11T00:54:49.739Z,11.4
2022-10-11T00:56:50.394Z,11.4
2022-10-11T00:58:50.307Z,11.5
2022-10-11T01:00:50.247Z,11.1
2022-10-11T01:02:50.671Z,11.7
2022-10-11T01:05:18.263Z,11.7
2022-10-11T01:06:50.211Z,11.2
2022-10-11T01:08:50.395Z,11.8
2022-10-11T01:10:50.614Z,11.3
2022-10-11T01:12:49.703Z,12.0
2022-10-11T01:14:49.878Z,12.0
2022-10-11T01:16:50.356Z,11.5
2022-10-11T01:18:50.276Z,11.8
2022-10-11T01:20:50.409Z,11.9
2022-10-11T01:22:49.786Z,12.5
2022-10-11T01:24:49.799Z,12.5
2022-10-11T01:26:50.168Z,11.7
2022-10-11T01:28:50.553Z,12.8
2022-10-11T01:30:49.824Z,12.9
2022-10-11T01:32:49.798Z,12.9
2022-10-11T01:34:50.381Z,12.6
2022-10-11T01:36:50.004Z,12.4
2022-10-11T01:38:49.946Z,12.2
2022-10-11T01:40:50.163Z,12.2
2022-10-11T01:42:49.700Z,13.2
2022-10-11T01:44:49.677Z,13.1
2022-10-11T01:46:50.205Z,13.3
2022-10-11T01:48:50.355Z,14.3
2022-10-11T01:50:50.289Z,13.4
2022-10-11T01:52:50.276Z,13.4
2022-10-11T01:55:10.261Z,12.4
2022-10-11T01:56:50.270Z,13.0
2022-10-11T01:58:50.483Z,13.1
2022-10-11T02:00:50.517Z,13.1
2022-10-11T02:02:50.547Z,12.8
2022-10-11T02:04:50.030Z,13.0
2022-10-11T02:06:49.743Z,13.2
2022-10-11T02:08:50.274Z,13.4
2022-10-11T02:10:50.268Z,13.6
2022-10-11T02:12:50.195Z,13.6
2022-10-11T02:14:50.344Z,13.6
2022-10-11T02:16:49.768Z,14.1
2022-10-11T02:18:49.849Z,12.7
2022-10-11T02:20:49.851Z,12.4
2022-10-11T02:22:49.914Z,12.4
2022-10-11T02:24:49.686Z,12.7
2022-10-11T02:26:50.028Z,13.4
2022-10-11T02:28:50.150Z,12.8
2022-10-11T02:30:50.554Z,12.8
2022-10-11T02:32:49.828Z,12.8
2022-10-11T02:34:50.517Z,12.6
2022-10-11T02:36:50.056Z,12.4
2022-10-11T02:38:50.236Z,12.8
2022-10-11T02:40:50.455Z,12.8
2022-10-11T02:42:50.604Z,12.8
2022-10-11T02:44:49.923Z,12.4
2022-10-11T02:46:50.421Z,13.3
2022-10-11T02:48:50.286Z,12.2
2022-10-11T02:50:49.667Z,12.2
2022-10-11T02:52:49.840Z,11.9
2022-10-11T02:54:50.665Z,12.3
2022-10-11T02:56:50.007Z,12.6
2022-10-11T02:58:50.065Z,12.6
2022-10-11T03:00:49.961Z,12.6
2022-10-11T03:02:50.254Z,13.1
2022-10-11T03:04:49.874Z,12.3
2022-10-11T03:06:50.208Z,12.9
2022-10-11T03:08:50.504Z,12.9
2022-10-11T03:10:50.611Z,13.5
2022-10-11T03:12:50.567Z,12.6
2022-10-11T03:14:49.741Z,12.4
2022-10-11T03:16:51.740Z,12.4
2022-10-11T03:18:49.705Z,12.4
2022-10-11T03:20:49.813Z,12.8
2022-10-11T03:22:49.934Z,12.1
2022-10-11T03:24:49.965Z,13.2
2022-10-11T03:26:50.479Z,12.3
2022-10-11T03:28:50.612Z,12.3
2022-10-11T03:30:49.831Z,13.3
2022-10-11T03:32:49.882Z,12.9
2022-10-11T03:34:50.518Z,12.9
2022-10-11T03:36:49.894Z,13.1
2022-10-11T03:38:49.956Z,13.1
2022-10-11T03:40:50.162Z,13.0
2022-10-11T03:42:50.097Z,12.6
2022-10-11T03:44:50.174Z,13.4
2022-10-11T03:46:50.594Z,13.4
2022-10-11T03:48:49.710Z,13.4
2022-10-11T03:50:49.893Z,13.5
2022-10-11T03:52:50.237Z,13.6
2022-10-11T03:54:50.309Z,13.0
2022-10-11T03:56:50.662Z,13.0
2022-10-11T03:58:49.883Z,12.7
2022-10-11T04:00:49.858Z,12.6
2022-10-11T04:02:49.810Z,12.8
2022-10-11T04:04:50.484Z,12.5
2022-10-11T04:06:49.895Z,12.5
2022-10-11T04:08:49.915Z,12.2
2022-10-11T04:10:50.312Z,12.7
2022-10-11T04:12:50.391Z,12.7
2022-10-11T04:14:50.567Z,12.7
2022-10-11T04:16:50.018Z,12.1
2022-10-11T04:18:50.186Z,12.5
2022-10-11T04:20:50.348Z,12.5
2022-10-11T04:22:50.562Z,12.8
2022-10-11T04:24:49.685Z,12.3
2022-10-11T04:26:50.013Z,12.3
2022-10-11T04:28:50.297Z,12.2
2022-10-11T04:30:50.469Z,12.2
2022-10-11T04:32:50.417Z,12.4
2022-10-11T04:34:50.022Z,12.4
2022-10-11T04:36:50.689Z,12.3
2022-10-11T04:38:50.673Z,12.2
2022-10-11T04:40:49.829Z,12.6
2022-10-11T04:42:50.040Z,13.5
2022-10-11T04:44:50.091Z,13.5
2022-10-11T04:46:50.523Z,13.0
2022-10-11T04:48:50.501Z,13.2
2022-10-11T04:50:50.414Z,12.6
2022-10-11T04:52:50.577Z,14.0
2022-10-11T04:54:49.741Z,13.0
2022-10-11T04:56:50.162Z,13.0
2022-10-11T04:58:50.152Z,14.3
2022-10-11T05:00:50.353Z,12.6
2022-10-11T05:02:50.392Z,12.6
2022-10-11T05:04:50.129Z,13.2
2022-10-11T05:06:50.620Z,13.8
2022-10-11T05:08:49.706Z,13.5
2022-10-11T05:10:49.880Z,13.7
2022-10-11T05:12:50.040Z,13.7
2022-10-11T05:14:50.171Z,14.5
2022-10-11T05:16:50.672Z,14.8
2022-10-11T05:18:49.831Z,15.2
2022-10-11T05:20:49.969Z,15.2
2022-10-11T05:22:50.043Z,15.3
2022-10-11T05:24:49.892Z,15.3
2022-10-11T05:26:50.150Z,15.2
2022-10-11T05:28:50.558Z,14.5
2022-10-11T05:30:50.080Z,14.5
2022-10-11T05:32:50.012Z,15.1
2022-10-11T05:34:50.636Z,15.1
2022-10-11T05:36:50.278Z,15.4
2022-10-11T05:38:50.430Z,21.6
2022-10-11T05:40:50.503Z,21.6
2022-10-11T05:42:49.761Z,16.2
2022-10-11T05:44:49.938Z,15.8
2022-10-11T05:46:50.290Z,15.5
2022-10-11T05:48:50.364Z,16.3
2022-10-11T05:50:50.532Z,16.9
2022-10-11T05:52:50.599Z,16.9
2022-10-11T05:54:50.585Z,17.2
2022-10-11T05:56:49.758Z,16.7
2022-10-11T05:58:49.909Z,16.5
2022-10-11T06:00:50.344Z,15.8
2022-10-11T06:02:49.742Z,15.8
2022-10-11T06:04:50.610Z,15.3
2022-10-11T06:06:50.331Z,14.8
2022-10-11T06:08:50.411Z,14.8
2022-10-11T06:10:50.376Z,15.0
2022-10-11T06:12:50.496Z,15.0
2022-10-11T06:14:49.733Z,14.6
2022-10-11T06:16:50.217Z,14.7
2022-10-11T06:18:50.388Z,14.9
2022-10-11T06:20:50.632Z,14.1
2022-10-11T06:22:49.846Z,14.1
2022-10-11T06:24:50.150Z,14.2
2022-10-11T06:26:50.700Z,13.5
2022-10-11T06:28:50.091Z,13.5
2022-10-11T06:30:49.763Z,13.1
2022-10-11T06:32:49.950Z,13.9
2022-10-11T06:34:50.598Z,13.3
2022-10-11T06:36:49.989Z,13.8
2022-10-11T06:38:50.120Z,14.5
2022-10-11T06:40:49.994Z,14.5
2022-10-11T06:42:49.941Z,13.3
2022-10-11T06:44:50.268Z,14.0
2022-10-11T06:46:50.010Z,13.8
2022-10-11T06:48:49.873Z,12.4
2022-10-11T06:51:00.558Z,12.4
2022-10-11T06:52:50.250Z,12.4
2022-10-11T06:54:50.308Z,11.8
2022-10-11T06:56:50.740Z,12.7
2022-10-11T06:58:49.803Z,12.7
2022-10-11T07:00:49.898Z,12.7
2022-10-11T07:02:50.256Z,12.1
2022-10-11T07:04:49.694Z,11.6
2022-10-11T07:06:50.022Z,12.3
2022-10-11T07:08:50.225Z,12.3
2022-10-11T07:10:50.329Z,12.0
2022-10-11T07:12:50.332Z,12.1
2022-10-11T07:14:50.557Z,11.7
2022-10-11T07:16:50.265Z,11.4
2022-10-11T07:18:50.220Z,12.1
2022-10-11T07:20:50.293Z,12.1
2022-10-11T07:22:50.314Z,11.6
2022-10-11T07:24:50.213Z,11.9
2022-10-11T07:26:50.056Z,11.8
2022-10-11T07:28:50.411Z,12.0
2022-10-11T07:30:49.686Z,12.0
2022-10-11T07:32:50.664Z,11.6
2022-10-11T07:34:50.277Z,11.4
2022-10-11T07:36:49.742Z,80.2
2022-10-11T07:38:49.792Z,80.2
2022-10-11T07:40:50.064Z,12.0
2022-10-11T07:42:50.091Z,12.4
2022-10-11T07:44:50.287Z,11.9
2022-10-11T07:46:49.754Z,11.5
2022-10-11T07:48:49.813Z,11.5
2022-10-11T07:50:49.866Z,11.4
2022-10-11T07:52:50.256Z,10.6
2022-10-11T07:54:50.326Z,10.2
2022-10-11T07:56:50.625Z,10.6
2022-10-11T07:58:49.912Z,10.6
2022-10-11T08:00:50.035Z,9.6
2022-10-11T08:02:50.267Z,9.9
2022-10-11T08:04:50.047Z,10.3
2022-10-11T08:06:53.681Z,10.3
2022-10-11T08:08:49.746Z,10.0
2022-10-11T08:10:50.171Z,9.5
2022-10-11T08:12:50.034Z,9.7
2022-10-11T08:14:50.003Z,9.7
2022-10-11T08:16:50.423Z,10.6
2022-10-11T08:18:50.612Z,9.4
2022-10-11T08:20:49.877Z,9.9
2022-10-11T08:22:50.076Z,8.5
2022-10-11T08:24:50.357Z,8.5
2022-10-11T08:26:50.594Z,7.7
2022-10-11T08:28:50.092Z,7.7
2022-10-11T08:30:49.709Z,7.6
2022-10-11T08:32:50.718Z,7.3
2022-10-11T08:34:49.996Z,7.1
2022-10-11T08:36:50.604Z,7.1
2022-10-11T08:38:49.816Z,7.1
2022-10-11T08:40:49.886Z,6.8
2022-10-11T08:42:50.008Z,8.1
2022-10-11T08:45:10.373Z,7.0
2022-10-11T08:46:50.455Z,7.0
2022-10-11T08:48:50.500Z,7.2
2022-10-11T08:50:49.719Z,6.8
2022-10-11T08:52:50.626Z,7.8
2022-10-11T08:54:50.295Z,7.8
2022-10-11T08:56:49.735Z,6.7
2022-10-11T08:58:49.730Z,7.2
2022-10-11T09:00:49.924Z,6.0
2022-10-11T09:03:07.869Z,6.9
2022-10-11T09:04:50.357Z,6.9
2022-10-11T09:06:49.790Z,7.4
2022-10-11T09:08:49.977Z,6.6
2022-10-11T09:10:49.985Z,6.3
2022-10-11T09:12:49.956Z,7.5
2022-10-11T09:14:50.089Z,7.5
2022-10-11T09:16:50.585Z,8.3
2022-10-11T09:18:50.662Z,6.8
2022-10-11T09:20:50.606Z,6.7
2022-10-11T09:22:50.519Z,5.6
2022-10-11T09:24:50.544Z,5.6
2022-10-11T09:26:50.004Z,7.4
2022-10-11T09:28:50.372Z,7.5
2022-10-11T09:30:49.878Z,7.8
2022-10-11T09:32:50.052Z,6.4
2022-10-11T09:34:49.832Z,6.4
2022-10-11T09:36:50.381Z,6.7
2022-10-11T09:38:50.611Z,6.4
2022-10-11T09:40:50.633Z,6.8
2022-10-11T09:42:49.837Z,9.5
2022-10-11T09:44:49.992Z,9.5
2022-10-11T09:46:50.537Z,6.2
2022-10-11T09:48:50.697Z,6.3
2022-10-11T09:50:49.949Z,6.8
2022-10-11T09:52:49.925Z,6.8
2022-10-11T09:54:50.199Z,7.2
2022-10-11T09:56:49.778Z,6.0
2022-10-11T09:58:49.993Z,7.3
2022-10-11T10:00:50.281Z,6.5
2022-10-11T10:02:50.326Z,6.5
2022-10-11T10:04:49.994Z,6.2
2022-10-11T10:06:50.511Z,6.8
2022-10-11T10:08:50.593Z,6.2
2022-10-11T10:10:50.586Z,6.4
2022-10-11T10:12:49.790Z,6.4
2022-10-11T10:14:49.848Z,6.8
2022-10-11T10:16:50.322Z,6.1
2022-10-11T10:18:50.275Z,6.1
2022-10-11T10:20:50.508Z,5.9
2022-10-11T10:22:49.679Z,5.9
2022-10-11T10:24:50.498Z,6.0
2022-10-11T10:26:49.740Z,6.3
2022-10-11T10:28:50.455Z,6.5
2022-10-11T10:30:49.855Z,6.5
2022-10-11T10:32:49.932Z,6.0
2022-10-11T10:34:50.554Z,6.0
2022-10-11T10:36:49.779Z,5.5
2022-10-11T10:38:52.543Z,5.9
2022-10-11T10:40:49.737Z,5.9
2022-10-11T10:42:49.826Z,5.9
2022-10-11T10:44:49.810Z,5.7
2022-10-11T10:46:50.174Z,6.0
2022-10-11T10:50:50.247Z,6.0
2022-10-11T10:52:50.338Z,5.6
2022-10-11T10:54:50.412Z,5.7
2022-10-11T10:56:49.943Z,6.0
2022-10-11T10:58:50.345Z,6.2
2022-10-11T11:00:50.634Z,6.2
2022-10-11T11:02:50.784Z,6.4
2022-10-11T11:04:49.918Z,6.6
2022-10-11T11:06:50.695Z,6.2
2022-10-11T11:08:49.810Z,6.2
2022-10-11T11:10:49.858Z,6.4
2022-10-11T11:12:50.079Z,6.1
2022-10-11T11:14:50.185Z,6.4
2022-10-11T11:16:50.577Z,6.2
2022-10-11T11:18:50.643Z,10.8
2022-10-11T11:20:50.602Z,10.8
2022-10-11T11:22:50.673Z,6.1
2022-10-11T11:24:49.687Z,6.0
2022-10-11T11:26:50.214Z,5.8
2022-10-11T11:28:50.432Z,6.0
2022-10-11T11:30:49.894Z,6.0
2022-10-11T11:32:49.836Z,5.7
2022-10-11T11:34:50.371Z,5.5
2022-10-11T11:36:49.779Z,5.5
2022-10-11T11:38:49.860Z,5.6
2022-10-11T11:40:49.861Z,6.6
2022-10-11T11:42:49.980Z,5.9
2022-10-11T11:44:49.884Z,6.2
2022-10-11T11:46:50.179Z,6.2
2022-10-11T11:48:50.245Z,5.8
2022-10-11T11:50:50.219Z,5.9
2022-10-11T11:52:50.348Z,6.6
2022-10-11T11:54:50.423Z,6.2
2022-10-11T11:56:49.709Z,6.0
2022-10-11T11:58:49.922Z,6.0
2022-10-11T12:00:50.177Z,6.3
2022-10-11T12:02:50.268Z,6.3
2022-10-11T12:04:50.006Z,5.7
2022-10-11T12:07:15.230Z,5.7
2022-10-11T12:08:49.742Z,6.0
2022-10-11T12:10:49.788Z,6.1
2022-10-11T12:12:49.890Z,5.8
2022-10-11T12:14:49.911Z,5.8
2022-10-11T12:16:50.161Z,6.0
2022-10-11T12:18:50.421Z,6.0
2022-10-11T12:20:50.336Z,5.6
2022-10-11T12:22:50.432Z,5.5
2022-10-11T12:24:50.643Z,5.3
2022-10-11T12:26:50.106Z,5.3
2022-10-11T12:28:50.430Z,5.4
2022-10-11T12:30:49.934Z,5.9
2022-10-11T12:32:49.846Z,5.3
2022-10-11T12:34:50.510Z,5.1
2022-10-11T12:36:49.786Z,5.4
2022-10-11T12:38:49.798Z,5.4
2022-10-11T12:40:49.721Z,5.4
2022-10-11T12:42:49.760Z,5.3
2022-10-11T12:44:49.735Z,5.6
2022-10-11T12:46:50.209Z,5.6
2022-10-11T12:48:50.431Z,5.3
2022-10-11T12:50:50.476Z,4.9
2022-10-11T12:52:50.487Z,5.0
2022-10-11T12:54:50.467Z,5.0
2022-10-11T12:56:49.729Z,5.0
2022-10-11T12:58:49.840Z,4.7
2022-10-11T13:00:50.269Z,4.7
2022-10-11T13:02:50.680Z,4.8
2022-10-11T13:04:50.542Z,4.9
2022-10-11T13:06:50.203Z,4.9
2022-10-11T13:08:50.344Z,4.8
2022-10-11T13:10:50.258Z,4.0
2022-10-11T13:12:50.372Z,4.0
2022-10-11T13:14:50.577Z,10.6
2022-10-11T13:16:50.009Z,4.5
2022-10-11T13:18:50.057Z,4.4
2022-10-11T13:20:50.133Z,4.6
2022-10-11T13:22:50.229Z,4.6
2022-10-11T13:24:50.396Z,4.7
2022-10-11T13:26:49.735Z,5.0
2022-10-11T13:28:50.053Z,5.1
2022-10-11T13:30:50.381Z,5.3
2022-10-11T13:32:50.443Z,5.1
2022-10-11T13:34:50.438Z,5.1
2022-10-11T13:36:50.008Z,4.9
2022-10-11T13:38:50.146Z,5.0
2022-10-11T13:40:51.458Z,5.2
2022-10-11T13:42:50.414Z,5.2
2022-10-11T13:44:50.503Z,5.2
2022-10-11T13:46:49.767Z,4.7
2022-10-11T13:48:49.809Z,4.4
2022-10-11T13:50:49.922Z,5.1
2022-10-11T13:52:50.023Z,5.1
2022-10-11T13:54:50.173Z,4.7
2022-10-11T13:56:49.983Z,4.7
2022-10-11T13:58:50.129Z,4.7
2022-10-11T14:00:50.138Z,4.2
2022-10-11T14:02:50.058Z,4.2
2022-10-11T14:04:50.662Z,4.1
2022-10-11T14:06:50.058Z,5.1
2022-10-11T14:08:49.991Z,3.6
2022-10-11T14:10:57.346Z,4.1
2022-10-11T14:12:50.539Z,4.1
2022-10-11T14:14:50.587Z,4.1
2022-10-11T14:16:50.134Z,4.7
2022-10-11T14:18:50.456Z,4.3
2022-10-11T14:20:50.514Z,4.7
2022-10-11T14:22:50.654Z,4.7
2022-10-11T14:24:49.692Z,4.7
2022-10-11T14:26:50.199Z,6.0
2022-10-11T14:28:50.232Z,6.0
2022-10-11T14:30:50.732Z,4.0
2022-10-11T14:32:50.064Z,4.0
2022-10-11T14:34:50.631Z,4.4
2022-10-11T14:36:50.054Z,4.7
2022-10-11T14:38:50.196Z,4.3
2022-10-11T14:40:50.144Z,4.3
2022-10-11T14:42:50.100Z,4.3
2022-10-11T14:44:50.155Z,4.1
2022-10-11T14:46:50.524Z,4.1
2022-10-11T14:48:56.464Z,4.5
2022-10-11T14:50:50.187Z,4.2
2022-10-11T14:52:50.198Z,4.2
2022-10-11T14:54:50.311Z,4.4
2022-10-11T14:56:49.896Z,4.6
2022-10-11T14:58:49.898Z,4.8
2022-10-11T15:00:49.804Z,4.7
2022-10-11T15:02:49.984Z,4.7
2022-10-11T15:04:49.723Z,4.7
2022-10-11T15:06:50.133Z,4.9
2022-10-11T15:08:50.282Z,5.1
2022-10-11T15:10:50.387Z,4.7
2022-10-11T15:12:50.386Z,4.7
2022-10-11T15:14:50.641Z,5.2
2022-10-11T15:16:49.985Z,4.9
2022-10-11T15:18:49.994Z,5.0
2022-10-11T15:20:50.012Z,5.0
2022-10-11T15:22:50.136Z,4.9
2022-10-11T15:24:51.997Z,5.3
2022-10-11T15:26:50.404Z,5.3
2022-10-11T15:28:50.324Z,5.2
2022-10-11T15:30:49.856Z,5.2
2022-10-11T15:32:50.109Z,5.0
2022-10-11T15:34:49.798Z,5.2
2022-10-11T15:36:50.306Z,5.1
2022-10-11T15:38:50.234Z,5.1
2022-10-11T15:40:50.423Z,5.4
2022-10-11T15:42:50.526Z,5.6
2022-10-11T15:44:50.613Z,5.1
2022-10-11T15:46:50.251Z,5.6
2022-10-11T15:48:50.473Z,5.6
2022-10-11T15:50:50.551Z,5.3
2022-10-11T15:52:49.684Z,5.7
2022-10-11T15:54:49.872Z,5.2
2022-10-11T15:56:50.214Z,5.2
2022-10-11T15:58:50.181Z,5.2
2022-10-11T16:00:50.404Z,5.3
2022-10-11T16:02:50.400Z,5.1
2022-10-11T16:04:50.240Z,4.7
2022-10-11T16:06:50.464Z,5.0
2022-10-11T16:08:49.687Z,5.0
2022-10-11T16:10:50.628Z,5.0
2022-10-11T16:12:49.801Z,4.7
2022-10-11T16:14:50.145Z,4.8
2022-10-11T16:16:50.505Z,4.8
2022-10-11T16:18:50.438Z,4.9
2022-10-11T16:20:50.557Z,4.7
2022-10-11T16:22:49.739Z,4.7
2022-10-11T16:24:49.789Z,4.6
2022-10-11T16:26:50.296Z,4.6
2022-10-11T16:28:50.572Z,4.7
2022-10-11T16:30:50.147Z,5.2
2022-10-11T16:32:50.361Z,4.9
2022-10-11T16:34:49.841Z,5.7
2022-10-11T16:36:50.153Z,5.7
2022-10-11T16:38:50.276Z,5.4
2022-10-11T16:40:50.530Z,4.9
2022-10-11T16:42:50.672Z,5.0
2022-10-11T16:44:50.608Z,5.0
2022-10-11T16:46:50.015Z,5.3
2022-10-11T16:48:50.141Z,5.6
2022-10-11T16:50:50.118Z,5.0
2022-10-11T16:52:50.167Z,5.0
2022-10-11T16:54:50.305Z,5.5
2022-10-11T16:56:50.018Z,5.5
2022-10-11T16:58:50.186Z,5.9
2022-10-11T17:00:50.314Z,5.5
2022-10-11T17:02:49.744Z,5.5
2022-10-11T17:04:50.328Z,5.9
2022-10-11T17:06:50.010Z,5.9
2022-10-11T17:08:49.932Z,5.8
2022-10-11T17:10:49.989Z,5.5
2022-10-11T17:12:50.463Z,5.5
2022-10-11T17:14:50.548Z,6.3
2022-10-11T17:16:50.045Z,6.3
2022-10-11T17:18:50.089Z,6.1
2022-10-11T17:20:50.155Z,5.9
2022-10-11T17:22:50.296Z,5.9
2022-10-11T17:24:50.385Z,5.9
2022-10-11T17:26:49.850Z,6.4
2022-10-11T17:28:50.139Z,6.8
2022-10-11T17:30:50.389Z,6.9
2022-10-11T17:32:50.506Z,7.2
2022-10-11T17:34:50.146Z,7.2
2022-10-11T17:36:50.682Z,6.9
2022-10-11T17:38:49.734Z,6.6
2022-10-11T17:40:50.113Z,6.6
2022-10-11T17:42:50.114Z,6.2
2022-10-11T17:44:50.129Z,6.2
2022-10-11T17:46:50.633Z,6.6
2022-10-11T17:48:50.663Z,6.3
2022-10-11T17:50:51.048Z,6.8
2022-10-11T17:52:50.295Z,6.8
2022-10-11T17:54:50.396Z,6.5
2022-10-11T17:56:49.820Z,6.7
2022-10-11T17:58:50.113Z,6.6
2022-10-11T18:00:50.420Z,6.6
2022-10-11T18:02:50.462Z,6.0
2022-10-11T18:04:49.816Z,6.0
2022-10-11T18:06:50.222Z,6.9
2022-10-11T18:08:50.221Z,7.7
2022-10-11T18:10:50.460Z,7.1
2022-10-11T18:12:50.589Z,6.7
2022-10-11T18:14:50.634Z,6.7
2022-10-11T18:16:50.166Z,7.5
2022-10-11T18:18:50.154Z,7.5
2022-10-11T18:20:50.135Z,7.5
2022-10-11T18:22:50.252Z,7.3
2022-10-11T18:24:50.495Z,6.9
2022-10-11T18:26:49.847Z,6.7
2022-10-11T18:28:50.093Z,6.4
2022-10-11T18:30:50.599Z,6.8
2022-10-11T18:32:50.532Z,6.8
2022-10-11T18:34:50.070Z,6.2
2022-10-11T18:36:50.358Z,6.5
2022-10-11T18:38:50.290Z,6.9
2022-10-11T18:40:50.363Z,6.8
2022-10-11T18:42:50.601Z,6.8
2022-10-11T18:44:50.668Z,6.4
2022-10-11T18:46:50.133Z,7.1
2022-10-11T18:48:50.317Z,7.1
2022-10-11T18:50:50.398Z,7.4
2022-10-11T18:52:50.528Z,7.4
2022-10-11T18:54:50.466Z,7.4
2022-10-11T18:56:49.858Z,7.0
2022-10-11T18:58:50.291Z,7.1
2022-10-11T19:00:50.595Z,6.3
2022-10-11T19:02:50.052Z,6.3
2022-10-11T19:04:50.696Z,6.7
2022-10-11T19:06:50.078Z,6.4
2022-10-11T19:08:50.363Z,7.5
2022-10-11T19:10:50.478Z,6.8
2022-10-11T19:12:50.421Z,6.8
2022-10-11T19:14:50.567Z,6.3
2022-10-11T19:16:50.181Z,7.2
2022-10-11T19:18:50.368Z,7.2
2022-10-11T19:20:50.403Z,7.2
2022-10-11T19:22:50.505Z,6.5
2022-10-11T19:24:50.705Z,6.9
2022-10-11T19:26:50.528Z,7.3
2022-10-11T19:28:50.057Z,6.9
2022-10-11T19:30:50.461Z,6.9
2022-10-11T19:32:49.859Z,7.5
2022-10-11T19:34:50.555Z,7.6
2022-10-11T19:36:50.044Z,7.6
2022-10-11T19:38:50.399Z,7.8
2022-10-11T19:40:50.605Z,7.8
2022-10-11T19:42:50.444Z,8.6
2022-10-11T19:44:50.617Z,7.8
2022-10-11T19:46:53.322Z,7.8
2022-10-11T19:48:50.583Z,8.5
2022-10-11T19:50:49.939Z,8.2
2022-10-11T19:52:49.893Z,8.1
2022-10-11T19:54:49.936Z,8.4
2022-10-11T19:56:50.294Z,8.4
2022-10-11T19:58:50.523Z,8.1
2022-10-11T20:00:50.368Z,8.5
2022-10-11T20:02:49.969Z,8.7
2022-10-11T20:04:53.424Z,9.5
2022-10-11T20:06:50.216Z,9.4
2022-10-11T20:09:24.295Z,9.3
2022-10-11T20:10:49.707Z,9.3
2022-10-11T20:12:49.745Z,9.0
2022-10-11T20:14:50.632Z,8.6
2022-10-11T20:16:50.396Z,8.5
2022-10-11T20:18:50.665Z,8.5
2022-10-11T20:20:49.748Z,8.5
2022-10-11T20:22:49.836Z,8.3
2022-10-11T20:24:49.871Z,8.8
2022-10-11T20:26:50.365Z,8.9
2022-10-11T20:28:56.200Z,8.9
2022-10-11T20:30:50.522Z,8.6
2022-10-11T20:32:50.473Z,8.6
2022-10-11T20:34:50.092Z,9.0
2022-10-11T20:36:50.480Z,8.3
2022-10-11T20:38:50.476Z,8.3
2022-10-11T20:40:50.507Z,9.4
2022-10-11T20:42:50.643Z,9.1
2022-10-11T20:44:50.666Z,9.4
2022-10-11T20:46:50.251Z,9.4
2022-10-11T20:48:50.337Z,9.4
2022-10-11T20:50:50.422Z,9.9
2022-10-11T20:52:50.523Z,9.3
2022-10-11T20:54:50.545Z,8.8
2022-10-11T20:56:50.076Z,8.8
2022-10-11T20:58:50.183Z,8.8
2022-10-11T21:00:50.089Z,8.6
2022-10-11T21:02:50.119Z,9.0
2022-10-11T21:04:49.742Z,8.7
2022-10-11T21:06:50.082Z,8.7
2022-10-11T21:08:50.086Z,7.8
2022-10-11T21:10:50.213Z,8.3
2022-10-11T21:12:50.278Z,8.2
2022-10-11T21:14:50.423Z,8.3
2022-10-11T21:16:49.966Z,8.3
2022-10-11T21:18:49.834Z,8.3
2022-10-11T21:20:49.793Z,8.1
2022-10-11T21:22:49.885Z,7.9
2022-10-11T21:24:49.861Z,7.9
2022-10-11T21:26:50.498Z,8.0
2022-10-11T21:28:50.614Z,9.1
2022-10-11T21:30:49.839Z,9.0
2022-10-11T21:32:49.977Z,9.0
2022-10-11T21:34:49.839Z,8.7
2022-10-11T21:36:50.309Z,8.1
2022-10-11T21:38:50.614Z,9.1
2022-10-11T21:40:50.524Z,8.1
2022-10-11T21:42:50.411Z,8.2
2022-10-11T21:44:50.575Z,9.0
2022-10-11T21:47:07.309Z,9.0
2022-10-11T21:48:49.710Z,8.2
2022-10-11T21:50:49.784Z,7.9
2022-10-11T21:52:49.856Z,7.3
2022-10-11T21:54:50.050Z,7.3
2022-10-11T21:56:50.489Z,8.3
2022-10-11T21:58:50.308Z,8.2
2022-10-11T22:00:50.453Z,8.2
2022-10-11T22:02:50.538Z,7.9
2022-10-11T22:04:50.146Z,7.9
2022-10-11T22:06:50.579Z,8.1
2022-10-11T22:08:50.647Z,7.7
2022-10-11T22:10:49.704Z,7.7
2022-10-11T22:12:49.774Z,8.7
2022-10-11T22:14:50.079Z,8.7
2022-10-11T22:16:50.585Z,8.5
2022-10-11T22:18:49.660Z,8.7
2022-10-11T22:20:49.808Z,8.3
2022-10-11T22:22:49.792Z,8.2
2022-10-11T22:24:49.947Z,8.2
2022-10-11T22:26:50.459Z,7.9
2022-10-11T22:28:50.562Z,8.6
2022-10-11T22:30:50.138Z,8.2
2022-10-11T22:32:50.296Z,8.2
2022-10-11T22:34:49.924Z,8.0
2022-10-11T22:36:50.422Z,8.1
2022-10-11T22:38:50.407Z,7.9
2022-10-11T22:40:50.380Z,7.9
2022-10-11T22:42:50.382Z,7.9
2022-10-11T22:44:50.539Z,8.0
2022-10-11T22:46:49.809Z,8.2
2022-10-11T22:48:49.873Z,8.2
2022-10-11T22:50:49.898Z,7.9
2022-10-11T22:52:49.828Z,7.9
2022-10-11T22:54:50.054Z,7.9
2022-10-11T22:56:50.377Z,8.1
2022-10-11T22:58:50.561Z,8.8
2022-10-11T23:00:49.694Z,8.5
2022-10-11T23:02:49.794Z,8.5
2022-10-11T23:04:50.237Z,8.6
2022-10-11T23:06:50.459Z,8.0
2022-10-11T23:08:50.551Z,8.2
2022-10-11T23:10:50.635Z,8.6
2022-10-11T23:12:50.671Z,8.6
2022-10-11T23:14:49.789Z,8.6
2022-10-11T23:16:50.175Z,8.1
2022-10-11T23:18:50.293Z,8.3
2022-10-11T23:20:50.501Z,8.0
2022-10-11T23:22:50.374Z,8.0
2022-10-11T23:24:50.569Z,8.3
2022-10-11T23:26:50.236Z,8.3
2022-10-11T23:28:50.411Z,8.6
2022-10-11T23:30:49.715Z,8.6
2022-10-11T23:32:49.984Z,8.4
2022-10-11T23:34:50.685Z,7.9
2022-10-11T23:36:50.124Z,8.2
2022-10-11T23:38:50.228Z,8.6
2022-10-11T23:40:50.191Z,8.6
2022-10-11T23:42:50.358Z,8.6
2022-10-11T23:44:50.345Z,8.3
2022-10-11T23:46:49.916Z,8.3
2022-10-11T23:48:49.984Z,8.3
2022-10-11T23:50:50.039Z,8.3
2022-10-11T23:52:49.975Z,7.8
2022-10-11T23:54:50.266Z,7.9
2022-10-11T23:56:49.758Z,7.6
2022-10-11T23:58:49.733Z,8.1
